sensor_id;sensor_type;location;lat;lon;timestamp;pressure;altitude;pressure_sealevel;temperature;humidity
71642;BME280;60657;50.122;14.468;2023-02-01T00:01:19;98198.77955349507;;;5.199511711299309;73.88288700694285
71642;BME280;60657;50.122;14.468;2023-02-01T00:04:25;98185.64750694112;;;5.234225986114289;73.68070496681163
71642;BME280;60657;50.122;14.468;2023-02-01T00:07:30;98201.2993641514;;;5.21553368429084;73.62348363469901
71642;BME280;60657;50.122;14.468;2023-02-01T00:10:35;98211.98623857385;;;5.218204013122758;73.7741664759289
71642;BME280;60657;50.122;14.468;2023-02-01T00:13:41;98205.40781924341;;;5.202182040131227;73.51857785915922
71642;BME280;60657;50.122;14.468;2023-02-01T00:16:47;98213.54847635038;;;5.06332494087129;73.65781643396659
71642;BME280;60657;50.122;14.468;2023-02-01T00:19:52;98201.17407741405;;;5.122072175173571;73.61394674601358
71642;BME280;60657;50.122;14.468;2023-02-01T00:22:57;98207.70059964548;;;5.114061188677809;73.83710994125276
71642;BME280;60657;50.122;14.468;2023-02-01T00:26:04;98205.12806781653;;;5.084687571526665;73.83901731898985
71642;BME280;60657;50.122;14.468;2023-02-01T00:29:12;98204.39923020254;;;5.122072175173571;73.79133287556267
71642;BME280;60657;50.122;14.468;2023-02-01T00:32:20;98212.69118282177;;;5.143434805828946;73.9057755397879
71642;BME280;60657;50.122;14.468;2023-02-01T00:35:25;98206.91993013222;;;5.175478751812008;73.91340505073624
71642;BME280;60657;50.122;14.468;2023-02-01T00:38:31;98202.91281521639;;;5.212863355458914;73.81994354161898
71642;BME280;60657;50.122;14.468;2023-02-01T00:41:38;98207.95259181963;;;5.263599603265433;73.65018692301824
71642;BME280;60657;50.122;14.468;2023-02-01T00:44:44;98221.00913913618;;;5.1621271076524025;74.01831082627604
71642;BME280;60657;50.122;14.468;2023-02-01T00:47:49;98226.831944762;;;5.212863355458914;73.9343862058442
71642;BME280;60657;50.122;14.468;2023-02-01T00:50:58;98209.51620603444;;;5.1407644769970275;74.09269855802243
71642;BME280;60657;50.122;14.468;2023-02-01T00:54:04;98211.07863710291;;;5.124742504005496;74.54856183718624
71642;BME280;60657;50.122;14.468;2023-02-01T00:57:10;98203.74447925681;;;5.199511711299309;74.58480201419088
71642;BME280;60657;50.122;14.468;2023-02-01T01:00:18;98206.21448741869;;;5.090028229190509;74.89570458533608
71642;BME280;60657;50.122;14.468;2023-02-01T01:03:23;98214.40567414972;;;5.092698558022434;74.86518654154268
71642;BME280;60657;50.122;14.468;2023-02-01T01:06:30;98215.26277620629;;;5.138094148165102;74.95864805065995
71642;BME280;60657;50.122;14.468;2023-02-01T01:09:38;98213.522960585;;;5.108720531013965;75.03494316014344
71642;BME280;60657;50.122;14.468;2023-02-01T01:12:43;98214.45627321667;;;5.196841382467383;75.01586938277256
71642;BME280;60657;50.122;14.468;2023-02-01T01:15:49;98222.62167865696;;;5.175478751812008;75.67772945754177
71642;BME280;60657;50.122;14.468;2023-02-01T01:18:54;98211.85940902983;;;5.100709544518196;75.923781185626
71642;BME280;60657;50.122;14.468;2023-02-01T01:22:01;98218.51371055283;;;5.191500724803539;76.07064927138171
71642;BME280;60657;50.122;14.468;2023-02-01T01:25:06;98215.86362513698;;;5.08735790035859;76.86984054322117
71642;BME280;60657;50.122;14.468;2023-02-01T01:28:12;98218.35916655268;;;5.0526436255436025;76.27473868925001
71642;BME280;60657;50.122;14.468;2023-02-01T01:31:18;98210.04083426505;;;5.02059967956054;76.63523308155948
71642;BME280;60657;50.122;14.468;2023-02-01T01:34:25;98209.28694136345;;;5.06332494087129;76.32433051041428
71642;BME280;60657;50.122;14.468;2023-02-01T01:37:31;98205.9339119123;;;5.025940337224384;76.02487220569162
71642;BME280;60657;50.122;14.468;2023-02-01T01:40:37;98204.21823817537;;;5.041962310215915;76.00961318379493
71642;BME280;60657;50.122;14.468;2023-02-01T01:43:47;98208.42926077853;;;5.028610666056309;75.77500572213322
71642;BME280;60657;50.122;14.468;2023-02-01T01:46:55;98215.86362513698;;;5.055313954375528;75.3801785305562
71642;BME280;60657;50.122;14.468;2023-02-01T01:50:00;98210.17024139997;;;5.090028229190509;74.91287098496986
71642;BME280;60657;50.122;14.468;2023-02-01T01:53:08;98205.23095999373;;;5.039291981383997;74.52948805981536
71642;BME280;60657;50.122;14.468;2023-02-01T01:56:21;98205.20536168097;;;5.076676585030903;73.59105821316854
71642;BME280;60657;50.122;14.468;2023-02-01T01:59:28;98207.02109288954;;;5.156786449988559;73.41748683909361
71642;BME280;60657;50.122;14.468;2023-02-01T02:02:37;98219.39634881257;;;5.212863355458914;72.20057984283207
71642;BME280;60657;50.122;14.468;2023-02-01T02:05:46;98214.48144794884;;;5.188830395971621;71.08094911116197
71642;BME280;60657;50.122;14.468;2023-02-01T02:08:56;98211.17963464101;;;5.255588616769664;70.89593347066453
71642;BME280;60657;50.122;14.468;2023-02-01T02:12:02;98212.16030522781;;;5.365072098878464;70.73380636301214
71642;BME280;60657;50.122;14.468;2023-02-01T02:15:08;98208.00199175772;;;5.266269932097352;70.52971694514382
71642;BME280;60657;50.122;14.468;2023-02-01T02:18:18;98221.21034060742;;;5.341039139391164;70.37331197070267
71642;BME280;60657;50.122;14.468;2023-02-01T02:21:38;98222.04209191995;;;5.266269932097352;70.11390859845883
71642;BME280;60657;50.122;14.468;2023-02-01T02:25:13;98222.04209191995;;;5.325017166399633;69.69619287403677
71642;BME280;60657;50.122;14.468;2023-02-01T02:29:10;98236.03296273554;;;5.333028152895402;69.04577706569009
71642;BME280;60657;50.122;14.468;2023-02-01T02:34:49;98229.57733458716;;;5.415808346684976;68.7501335164416
71642;BME280;60657;50.122;14.468;2023-02-01T02:38:07;98234.46930121702;;;5.373083085374226;67.08690012970169
71642;BME280;60657;50.122;14.468;2023-02-01T02:41:26;98248.63564107363;;;5.458533607995726;66.51468680857558
71642;BME280;60657;50.122;14.468;2023-02-01T02:44:44;98243.03131236986;;;5.5653467612726;65.7879758907454
71642;BME280;60657;50.122;14.468;2023-02-01T02:47:55;98240.60747811515;;;5.586709391927975;65.89478904402227
71642;BME280;60657;50.122;14.468;2023-02-01T02:51:09;98231.64622248628;;;5.6534676127260255;65.713588158999
71642;BME280;60657;50.122;14.468;2023-02-01T02:54:25;98234.09477134458;;;5.642786297398338;66.1866178377966
71642;BME280;60657;50.122;14.468;2023-02-01T02:57:37;98226.77133991409;;;5.704203860532537;66.30869001297017
71642;BME280;60657;50.122;14.468;2023-02-01T03:00:48;98208.5234061446;;;5.626764324406807;66.94575417715724
71642;BME280;60657;50.122;14.468;2023-02-01T03:03:56;98216.74683596367;;;5.605401693751432;67.68390936140993
71642;BME280;60657;50.122;14.468;2023-02-01T03:07:46;98200.9944492344;;;5.568017090104526;68.30189974822613
71642;BME280;60657;50.122;14.468;2023-02-01T03:11:02;98202.61117512904;;;5.533302815289538;68.87792782482643
71642;BME280;60657;50.122;14.468;2023-02-01T03:14:12;98196.8832097034;;;5.557335774776838;69.16784924086366
71642;BME280;60657;50.122;14.468;2023-02-01T03:17:22;98203.34931693366;;;5.410467689021132;69.854505226215
71642;BME280;60657;50.122;14.468;2023-02-01T03:20:38;98200.90168019058;;;5.4558632791638075;70.14824139772641
71642;BME280;60657;50.122;14.468;2023-02-01T03:23:49;98199.19180142405;;;5.447852292668038;70.65941863126574
71642;BME280;60657;50.122;14.468;2023-02-01T03:27:01;98192.5399825127;;;5.3463797970550075;70.98176546883344
71642;BME280;60657;50.122;14.468;2023-02-01T03:30:15;98186.8138485794;;;5.389105058365757;71.12672617685206
71642;BME280;60657;50.122;14.468;2023-02-01T03:33:26;98185.05698924519;;;5.351720454718851;71.48340581368734
71642;BME280;60657;50.122;14.468;2023-02-01T03:36:35;98175.00844227607;;;5.178149080643934;71.90302891584649
71642;BME280;60657;50.122;14.468;2023-02-01T03:39:51;98175.76740127282;;;5.159456778820477;72.1528953994049
71642;BME280;60657;50.122;14.468;2023-02-01T03:43:04;98179.04451332417;;;5.175478751812008;72.34554055085069
71642;BME280;60657;50.122;14.468;2023-02-01T03:46:18;98161.73062268471;;;5.164797436484321;71.9163805600061
71642;BME280;60657;50.122;14.468;2023-02-01T03:49:32;98158.35693386031;;;5.084687571526665;72.13000686655985
71642;BME280;60657;50.122;14.468;2023-02-01T03:52:42;98169.04267958508;;;5.138094148165102;71.81147478446631
71642;BME280;60657;50.122;14.468;2023-02-01T03:55:52;98170.77888120378;;;5.135423819333184;71.84580758373389
71642;BME280;60657;50.122;14.468;2023-02-01T03:58:59;98178.21305098804;;;5.119401846341653;71.48531319142442
71642;BME280;60657;50.122;14.468;2023-02-01T04:02:05;98175.62026247133;;;5.10605020218204;71.71610589761197
71642;BME280;60657;50.122;14.468;2023-02-01T04:05:10;98182.17274948474;;;5.049973296711684;71.83054856183719
71642;BME280;60657;50.122;14.468;2023-02-01T04:08:16;98186.2298729481;;;5.0232700083924655;71.98695353627832
71642;BME280;60657;50.122;14.468;2023-02-01T04:11:22;98189.50553959266;;;5.012588693064778;72.0956740672923
71642;BME280;60657;50.122;14.468;2023-02-01T04:14:28;98187.81676237234;;;5.009918364232853;72.07278553444725
71642;BME280;60657;50.122;14.468;2023-02-01T04:17:33;98195.90058175981;;;4.95384145876249;72.2997634851606
71642;BME280;60657;50.122;14.468;2023-02-01T04:20:39;98192.67801482676;;;4.940489814602884;72.17387655451286
71642;BME280;60657;50.122;14.468;2023-02-01T04:23:47;98183.65865286192;;;4.975204089417865;72.12428473334859
71642;BME280;60657;50.122;14.468;2023-02-01T04:26:52;98189.40301839609;;;4.967193102922103;71.9316395819028
71642;BME280;60657;50.122;14.468;2023-02-01T04:29:58;98183.55556840857;;;4.945830472266728;72.07660028992142
71642;BME280;60657;50.122;14.468;2023-02-01T04:33:03;98186.02456687542;;;4.844357976653697;72.11856260013734
71642;BME280;60657;50.122;14.468;2023-02-01T04:36:09;98176.04487228942;;;4.83367666132601;72.38178072785534
71642;BME280;60657;50.122;14.468;2023-02-01T04:39:15;98177.81176240485;;;4.9431601434348025;72.13572899977112
71642;BME280;60657;50.122;14.468;2023-02-01T04:42:21;98164.68589948262;;;4.97787441824979;72.10521095597773
71642;BME280;60657;50.122;14.468;2023-02-01T04:45:26;98158.03425807515;;;4.908445868619822;72.4485389486534
71642;BME280;60657;50.122;14.468;2023-02-01T04:48:32;98151.35740220481;;;4.8550392919813845;72.52483405813688
71642;BME280;60657;50.122;14.468;2023-02-01T04:51:38;98146.36897975644;;;4.822995345998322;72.87388418402381
71642;BME280;60657;50.122;14.468;2023-02-01T04:54:43;98141.43175294578;;;4.817654688334478;72.92156862745098
71642;BME280;60657;50.122;14.468;2023-02-01T04:57:49;98129.91997532165;;;4.798962386511022;73.04173342488747
71642;BME280;60657;50.122;14.468;2023-02-01T05:00:54;98124.0253152248;;;4.713511863889522;73.37933928435187
71642;BME280;60657;50.122;14.468;2023-02-01T05:04:00;98114.93270444953;;;4.684138246738385;73.69787136644541
71642;BME280;60657;50.122;14.468;2023-02-01T05:07:05;98119.71466888966;;;4.622720683604179;74.03547722590982
71642;BME280;60657;50.122;14.468;2023-02-01T05:10:11;98124.80551966895;;;4.713511863889522;73.73411154345007
71642;BME280;60657;50.122;14.468;2023-02-01T05:13:16;98128.93632070984;;;4.692149233234147;73.84092469672694
71642;BME280;60657;50.122;14.468;2023-02-01T05:16:22;98136.3410814665;;;4.710841535057604;73.81994354161898
71642;BME280;60657;50.122;14.468;2023-02-01T05:19:28;98124.80551966895;;;4.713511863889522;73.76844434271763
71642;BME280;60657;50.122;14.468;2023-02-01T05:22:33;98121.5315788577;;;4.721522850385291;73.79705500877394
71642;BME280;60657;50.122;14.468;2023-02-01T05:25:39;98124.85656864467;;;4.692149233234147;73.82757305256733
71642;BME280;60657;50.122;14.468;2023-02-01T05:28:44;98123.0915699628;;;4.66277561608301;74.01640344853895
71642;BME280;60657;50.122;14.468;2023-02-01T05:31:50;98122.26029165092;;;4.668116273746854;73.96108949416342
71642;BME280;60657;50.122;14.468;2023-02-01T05:34:56;98126.31303019254;;;4.66277561608301;73.90386816205081
71642;BME280;60657;50.122;14.468;2023-02-01T05:38:01;98121.4290173236;;;4.6574349584191665;74.01449607080187
71642;BME280;60657;50.122;14.468;2023-02-01T05:41:07;98130.49573209762;;;4.670786602578772;74.0812542915999
71642;BME280;60657;50.122;14.468;2023-02-01T05:44:12;98120.57189082658;;;4.6574349584191665;74.03547722590982
71642;BME280;60657;50.122;14.468;2023-02-01T05:47:18;98112.36257935202;;;4.6574349584191665;74.18997482261388
71642;BME280;60657;50.122;14.468;2023-02-01T05:50:24;98113.21938318541;;;4.684138246738385;74.27962157625696
71642;BME280;60657;50.122;14.468;2023-02-01T05:53:29;98108.23225700759;;;4.646753643091479;74.50278477149615
71642;BME280;60657;50.122;14.468;2023-02-01T05:56:35;98113.21938318541;;;4.625391012436104;74.77172503242542
71642;BME280;60657;50.122;14.468;2023-02-01T05:59:43;98113.99932229628;;;4.697489890897991;74.64583810177767
71642;BME280;60657;50.122;14.468;2023-02-01T06:02:48;98100.90441995626;;;4.734874494544897;74.64393072404059
71642;BME280;60657;50.122;14.468;2023-02-01T06:05:54;98103.34723001078;;;4.668116273746854;74.99107347219044
71642;BME280;60657;50.122;14.468;2023-02-01T06:08:59;98092.54301975922;;;4.670786602578772;75.08834973678188
71642;BME280;60657;50.122;14.468;2023-02-01T06:12:05;98102.46528475637;;;4.676127260242616;75.00061036087587
71642;BME280;60657;50.122;14.468;2023-02-01T06:15:11;98095.01079278377;;;4.622720683604179;74.97581445029374
71642;BME280;60657;50.122;14.468;2023-02-01T06:18:18;98091.78789445304;;;4.732204165712979;74.91859311818112
71642;BME280;60657;50.122;14.468;2023-02-01T06:21:23;98085.26494781412;;;4.713511863889522;74.90524147402151
71642;BME280;60657;50.122;14.468;2023-02-01T06:24:29;98089.46925631323;;;4.742885481040666;74.82894636453803
71642;BME280;60657;50.122;14.468;2023-02-01T06:27:35;98084.557183936;;;4.8043030441748655;74.69161516746776
71642;BME280;60657;50.122;14.468;2023-02-01T06:30:41;98080.47567734838;;;4.806973373006791;74.893797207599
71642;BME280;60657;50.122;14.468;2023-02-01T06:33:46;98078.76528576305;;;4.7375448233768225;75.10170138094148
71642;BME280;60657;50.122;14.468;2023-02-01T06:36:54;98101.07865562387;;;4.812314030670635;74.79270618753338
71642;BME280;60657;50.122;14.468;2023-02-01T06:40:00;98089.56712048764;;;4.822995345998322;74.74883649958038
71642;BME280;60657;50.122;14.468;2023-02-01T06:43:06;98081.33072983281;;;4.847028305485615;74.80987258716716
71642;BME280;60657;50.122;14.468;2023-02-01T06:46:12;98084.60588245999;;;4.801632715342947;75.11505302510109
71642;BME280;60657;50.122;14.468;2023-02-01T06:49:19;98081.40275480678;;;4.806973373006791;75.44121461814298
71642;BME280;60657;50.122;14.468;2023-02-01T06:52:24;98062.34230433912;;;4.774929427023729;75.79598687724116
71642;BME280;60657;50.122;14.468;2023-02-01T06:55:30;98062.41365093406;;;4.742885481040666;75.8932631418326
71642;BME280;60657;50.122;14.468;2023-02-01T06:58:35;98067.2548644253;;;4.7962920576791035;76.21370260166323
71642;BME280;60657;50.122;14.468;2023-02-01T07:01:41;98071.33628207997;;;4.750896467536428;76.40825513084611
71642;BME280;60657;50.122;14.468;2023-02-01T07:04:47;98068.08565406957;;;4.798962386511022;76.3205157549401
71642;BME280;60657;50.122;14.468;2023-02-01T07:07:52;98067.32681058264;;;4.769588769359885;76.56656748302434
71642;BME280;60657;50.122;14.468;2023-02-01T07:11:01;98076.29704016156;;;4.72419317921721;76.56466010528725
71642;BME280;60657;50.122;14.468;2023-02-01T07:14:10;98070.45663990785;;;4.718852521553366;76.47882810711833
71642;BME280;60657;50.122;14.468;2023-02-01T07:17:16;98065.56913245721;;;4.729533836881053;76.56084534981308
71642;BME280;60657;50.122;14.468;2023-02-01T07:20:21;98077.76146348102;;;4.630731670099948;76.90035858701457
71642;BME280;60657;50.122;14.468;2023-02-01T07:23:28;98066.30246631271;;;4.601358052948804;77.19028000305181
71642;BME280;60657;50.122;14.468;2023-02-01T07:26:34;98067.96412380206;;;4.70550087739376;77.01098649576562
71642;BME280;60657;50.122;14.468;2023-02-01T07:29:39;98062.19736853582;;;4.697489890897991;77.10635538261998
71642;BME280;60657;50.122;14.468;2023-02-01T07:32:45;98058.82520480157;;;4.582665751125354;77.45349813076982
71642;BME280;60657;50.122;14.468;2023-02-01T07:35:51;98063.85895333979;;;4.700160219729916;77.11398489356833
71642;BME280;60657;50.122;14.468;2023-02-01T07:38:57;98066.49604959447;;;4.7375448233768225;76.96520943007553
71642;BME280;60657;50.122;14.468;2023-02-01T07:42:02;98069.01214394193;;;4.839017318989853;76.78591592278934
71642;BME280;60657;50.122;14.468;2023-02-01T07:45:08;98060.01558997041;;;4.8844129091325215;76.60280766002899
71642;BME280;60657;50.122;14.468;2023-02-01T07:48:14;98055.07827666511;;;4.865720607309072;76.64667734798199
71642;BME280;60657;50.122;14.468;2023-02-01T07:51:20;98055.83885927388;;;4.806973373006791;76.74586099031052
71642;BME280;60657;50.122;14.468;2023-02-01T07:54:26;98058.44705948644;;;4.908445868619822;76.40253299763485
71642;BME280;60657;50.122;14.468;2023-02-01T07:57:31;98060.89277864336;;;4.897764553292134;76.37582970931564
71642;BME280;60657;50.122;14.468;2023-02-01T08:00:37;98055.30645173886;;;5.0526436255436025;75.94666971847104
71642;BME280;60657;50.122;14.468;2023-02-01T08:03:43;98052.13930243556;;;5.076676585030903;75.6453040360113
71642;BME280;60657;50.122;14.468;2023-02-01T08:06:48;98052.02899973727;;;5.001907377737091;75.87609674219883
71642;BME280;60657;50.122;14.468;2023-02-01T08:09:54;98052.05122663655;;;5.095368886854352;75.82650492103456
71642;BME280;60657;50.122;14.468;2023-02-01T08:13:00;98039.89825830459;;;5.199511711299309;75.63958190280003
71642;BME280;60657;50.122;14.468;2023-02-01T08:16:08;98030.08124075654;;;5.231555657282371;75.79598687724116
71642;BME280;60657;50.122;14.468;2023-02-01T08:19:16;98031.05399827691;;;5.343709468223089;75.33058670939192
71642;BME280;60657;50.122;14.468;2023-02-01T08:22:22;98027.77338449017;;;5.3677424277103825;75.40115968566415
71642;BME280;60657;50.122;14.468;2023-02-01T08:25:28;98026.1131146643;;;5.3383688105592455;75.24475471122301
71642;BME280;60657;50.122;14.468;2023-02-01T08:28:34;98027.75340627224;;;5.2876325627527265;75.22949568932631
71642;BME280;60657;50.122;14.468;2023-02-01T08:31:39;98030.2037090449;;;5.300984206912339;75.36682688639658
71642;BME280;60657;50.122;14.468;2023-02-01T08:34:45;98022.73228871085;;;5.271610589761195;75.12268253604944
71642;BME280;60657;50.122;14.468;2023-02-01T08:37:51;98031.07402660415;;;5.325017166399633;74.78507667658504
71642;BME280;60657;50.122;14.468;2023-02-01T08:40:57;98017.02183586925;;;5.325017166399633;74.48180361638819
71642;BME280;60657;50.122;14.468;2023-02-01T08:44:02;98030.30347564451;;;5.383764400701914;74.27771419851987
71642;BME280;60657;50.122;14.468;2023-02-01T08:47:09;98016.19176702437;;;5.263599603265433;74.55046921492333
71642;BME280;60657;50.122;14.468;2023-02-01T08:50:14;98022.00233206317;;;5.341039139391164;74.72594796673533
71642;BME280;60657;50.122;14.468;2023-02-01T08:53:21;98020.49824211089;;;5.4264896620126635;74.38452735179675
71642;BME280;60657;50.122;14.468;2023-02-01T08:56:27;98024.4328492707;;;5.218204013122758;75.32486457618067
71642;BME280;60657;50.122;14.468;2023-02-01T08:59:32;98013.85820680324;;;5.437170977340351;75.07881284809643
71642;BME280;60657;50.122;14.468;2023-02-01T09:02:43;98014.64955818762;;;5.373083085374226;75.25619897764554
71642;BME280;60657;50.122;14.468;2023-02-01T09:05:50;98009.66957442943;;;5.391775387197683;75.45456626230259
71642;BME280;60657;50.122;14.468;2023-02-01T09:08:56;98008.06764458172;;;5.375753414206152;75.2466620889601
71642;BME280;60657;50.122;14.468;2023-02-01T09:12:02;98006.42694162203;;;5.431830319676507;75.25810635538262
71642;BME280;60657;50.122;14.468;2023-02-01T09:15:08;98017.4027271774;;;5.616083009079119;74.60959792477303
71642;BME280;60657;50.122;14.468;2023-02-01T09:18:14;98011.66590147743;;;5.621423666742963;74.02594033722438
71642;BME280;60657;50.122;14.468;2023-02-01T09:21:20;98014.11946209239;;;5.632104982070651;73.39841306172275
71642;BME280;60657;50.122;14.468;2023-02-01T09:24:25;98010.8895161894;;;5.7202258335240685;73.16571297779812
71642;BME280;60657;50.122;14.468;2023-02-01T09:27:31;97996.14472478752;;;5.733577477683681;72.71557183184558
71642;BME280;60657;50.122;14.468;2023-02-01T09:30:37;98001.12270707644;;;5.805676356145568;72.14145113298238
71642;BME280;60657;50.122;14.468;2023-02-01T09:33:43;98001.96921027955;;;5.781643396658275;71.563515678645
71642;BME280;60657;50.122;14.468;2023-02-01T09:36:48;98009.45307691285;;;5.843060959792474;71.13244831006332
71642;BME280;60657;50.122;14.468;2023-02-01T09:39:58;97999.54678281;;;5.907148851758599;70.85969329365987
71642;BME280;60657;50.122;14.468;2023-02-01T09:43:15;98006.29672623727;;;6.024643320363168;69.87930113679712
71642;BME280;60657;50.122;14.468;2023-02-01T09:46:33;97997.18725152285;;;5.971236743724724;69.6771190966659
71642;BME280;60657;50.122;14.468;2023-02-01T09:49:48;98002.21157410697;;;5.995269703212024;69.26131074998092
71642;BME280;60657;50.122;14.468;2023-02-01T09:53:02;97990.59832135281;;;5.9178301670862865;69.0591287098497
71642;BME280;60657;50.122;14.468;2023-02-01T09:56:18;97993.0868106227;;;6.029983978027012;68.82452124818799
71642;BME280;60657;50.122;14.468;2023-02-01T09:59:31;97998.17085800196;;;6.120775158312355;67.97764553292134
71642;BME280;60657;50.122;14.468;2023-02-01T10:02:45;97995.66741927475;;;6.094071869993137;68.23704890516518
71642;BME280;60657;50.122;14.468;2023-02-01T10:05:56;97989.95069589515;;;6.206225680933855;67.66292820630197
71642;BME280;60657;50.122;14.468;2023-02-01T10:09:20;98009.02761124188;;;6.272983901731898;67.36346990157931
71642;BME280;60657;50.122;14.468;2023-02-01T10:12:43;98001.56248403738;;;6.219577325093461;67.7907225146868
71642;BME280;60657;50.122;14.468;2023-02-01T10:16:07;98006.67987257692;;;6.441214618142979;67.51796749828335
71642;BME280;60657;50.122;14.468;2023-02-01T10:19:27;97999.20184229474;;;6.321049820706492;67.28336003662166
71642;BME280;60657;50.122;14.468;2023-02-01T10:22:46;98000.03119769007;;;6.310368505378804;67.5999847409781
71642;BME280;60657;50.122;14.468;2023-02-01T10:26:05;97990.8805517461;;;6.251621271076523;67.76974135957884
71642;BME280;60657;50.122;14.468;2023-02-01T10:29:24;97994.8075803102;;;6.094071869993137;68.69481956206607
71642;BME280;60657;50.122;14.468;2023-02-01T10:32:38;98000.52122814786;;;6.07537956816968;69.46158541237507
71642;BME280;60657;50.122;14.468;2023-02-01T10:35:46;97992.17810817674;;;5.955214770733193;70.33134966048677
71642;BME280;60657;50.122;14.468;2023-02-01T10:39:00;97993.78872316373;;;5.925841153582056;71.15533684290837
71642;BME280;60657;50.122;14.468;2023-02-01T10:42:08;97985.49318786422;;;5.848401617456318;71.83054856183719
71642;BME280;60657;50.122;14.468;2023-02-01T10:45:15;97968.21934412495;;;5.939192797741661;71.21637293049515
71642;BME280;60657;50.122;14.468;2023-02-01T10:48:24;97972.36627279417;;;5.8590829327840055;71.40329594872969
71642;BME280;60657;50.122;14.468;2023-02-01T10:51:38;97992.12958459792;;;5.853742275120162;70.49156939040208
71642;BME280;60657;50.122;14.468;2023-02-01T10:54:52;97976.40130421025;;;5.8297093156328685;70.5316243228809
71642;BME280;60657;50.122;14.468;2023-02-01T10:57:59;97977.32697661844;;;5.853742275120162;70.77004654001678
71642;BME280;60657;50.122;14.468;2023-02-01T11:01:07;97981.42656654232;;;5.88044556343938;71.35370412756542
71642;BME280;60657;50.122;14.468;2023-02-01T11:04:21;97984.69623906794;;;5.789654383154037;71.0180056458381
71642;BME280;60657;50.122;14.468;2023-02-01T11:07:31;97978.0602596679;;;5.762951094834818;70.91119249256123
71642;BME280;60657;50.122;14.468;2023-02-01T11:10:39;97967.3421971294;;;5.816357671473256;71.29076066224155
71642;BME280;60657;50.122;14.468;2023-02-01T11:13:51;97961.66270741844;;;5.861753261615931;70.57358663309682
71642;BME280;60657;50.122;14.468;2023-02-01T11:17:15;97983.24108478564;;;6.03265430685893;69.55313954375525
71642;BME280;60657;50.122;14.468;2023-02-01T11:20:34;97972.51958536981;;;6.067368581673918;68.87792782482643
71642;BME280;60657;50.122;14.468;2023-02-01T11:23:44;97965.15881302001;;;6.080720225833524;68.82452124818799
71642;BME280;60657;50.122;14.468;2023-02-01T11:26:53;97961.193503379;;;6.326390478370335;68.3076218814374
71642;BME280;60657;50.122;14.468;2023-02-01T11:30:01;97973.64346837612;;;6.4011596856641475;67.99862668802929